sensor_id;sensor_type;location;lat;lon;timestamp;P1;durP1;ratioP1;P2;durP2;ratioP2
54259;SDS011;40172;53.022;7.012;2023-02-12T00:00:38;66.03;;;18.70;;
54259;SDS011;40172;53.022;7.012;2023-02-12T00:03:05;58.20;;;19.35;;
54259;SDS011;40172;53.022;7.012;2023-02-12T00:05:31;63.92;;;20.23;;
54259;SDS011;40172;53.022;7.012;2023-02-12T00:07:56;61.70;;;19.20;;
54259;SDS011;40172;53.022;7.012;2023-02-12T00:10:22;54.78;;;18.42;;
54259;SDS011;40172;53.022;7.012;2023-02-12T00:12:47;53.45;;;19.20;;
54259;SDS011;40172;53.022;7.012;2023-02-12T00:15:13;56.88;;;18.92;;
54259;SDS011;40172;53.022;7.012;2023-02-12T00:17:39;56.53;;;18.58;;
54259;SDS011;40172;53.022;7.012;2023-02-12T00:20:05;54.50;;;20.02;;
54259;SDS011;40172;53.022;7.012;2023-02-12T00:22:31;49.42;;;18.25;;
54259;SDS011;40172;53.022;7.012;2023-02-12T00:24:57;42.60;;;16.85;;
54259;SDS011;40172;53.022;7.012;2023-02-12T00:27:22;51.10;;;17.38;;
54259;SDS011;40172;53.022;7.012;2023-02-12T00:29:48;50.05;;;18.27;;
54259;SDS011;40172;53.022;7.012;2023-02-12T00:32:14;57.75;;;18.73;;
54259;SDS011;40172;53.022;7.012;2023-02-12T00:34:43;51.08;;;18.27;;
54259;SDS011;40172;53.022;7.012;2023-02-12T00:37:12;54.20;;;18.80;;
54259;SDS011;40172;53.022;7.012;2023-02-12T00:39:38;52.65;;;18.35;;
54259;SDS011;40172;53.022;7.012;2023-02-12T00:42:04;27.17;;;6.68;;
54259;SDS011;40172;53.022;7.012;2023-02-12T00:44:30;19.48;;;5.05;;
54259;SDS011;40172;53.022;7.012;2023-02-12T00:46:55;20.70;;;6.38;;
54259;SDS011;40172;53.022;7.012;2023-02-12T00:49:22;60.47;;;19.25;;
54259;SDS011;40172;53.022;7.012;2023-02-12T00:51:48;53.33;;;18.83;;
54259;SDS011;40172;53.022;7.012;2023-02-12T00:54:14;49.63;;;19.75;;
54259;SDS011;40172;53.022;7.012;2023-02-12T00:56:39;55.15;;;19.25;;
54259;SDS011;40172;53.022;7.012;2023-02-12T00:59:05;60.67;;;19.65;;
54259;SDS011;40172;53.022;7.012;2023-02-12T01:01:31;50.72;;;20.63;;
54259;SDS011;40172;53.022;7.012;2023-02-12T01:03:57;56.72;;;21.48;;
54259;SDS011;40172;53.022;7.012;2023-02-12T01:06:22;55.25;;;20.58;;
54259;SDS011;40172;53.022;7.012;2023-02-12T01:08:51;66.38;;;21.42;;
54259;SDS011;40172;53.022;7.012;2023-02-12T01:11:17;57.97;;;20.10;;
54259;SDS011;40172;53.022;7.012;2023-02-12T01:13:43;55.38;;;21.27;;
54259;SDS011;40172;53.022;7.012;2023-02-12T01:16:16;60.15;;;20.08;;
54259;SDS011;40172;53.022;7.012;2023-02-12T01:18:44;57.47;;;20.48;;
54259;SDS011;40172;53.022;7.012;2023-02-12T01:21:18;54.75;;;20.88;;
54259;SDS011;40172;53.022;7.012;2023-02-12T01:23:54;47.92;;;20.17;;
54259;SDS011;40172;53.022;7.012;2023-02-12T01:26:20;56.00;;;20.38;;
54259;SDS011;40172;53.022;7.012;2023-02-12T01:28:50;51.20;;;20.38;;
54259;SDS011;40172;53.022;7.012;2023-02-12T01:31:18;60.30;;;20.83;;
54259;SDS011;40172;53.022;7.012;2023-02-12T01:33:50;55.47;;;19.85;;
54259;SDS011;40172;53.022;7.012;2023-02-12T01:36:17;52.95;;;20.58;;
54259;SDS011;40172;53.022;7.012;2023-02-12T01:38:43;48.17;;;20.92;;
54259;SDS011;40172;53.022;7.012;2023-02-12T01:41:12;53.35;;;20.73;;
54259;SDS011;40172;53.022;7.012;2023-02-12T01:43:40;52.90;;;21.38;;
54259;SDS011;40172;53.022;7.012;2023-02-12T01:46:07;58.63;;;22.40;;
54259;SDS011;40172;53.022;7.012;2023-02-12T01:48:36;54.47;;;21.75;;
54259;SDS011;40172;53.022;7.012;2023-02-12T01:51:06;63.40;;;22.13;;
54259;SDS011;40172;53.022;7.012;2023-02-12T01:53:37;54.20;;;22.80;;
54259;SDS011;40172;53.022;7.012;2023-02-12T01:56:07;68.68;;;23.45;;
54259;SDS011;40172;53.022;7.012;2023-02-12T01:58:34;62.20;;;22.65;;
54259;SDS011;40172;53.022;7.012;2023-02-12T02:01:03;56.40;;;23.35;;
54259;SDS011;40172;53.022;7.012;2023-02-12T02:03:32;59.28;;;23.15;;
54259;SDS011;40172;53.022;7.012;2023-02-12T02:06:05;62.67;;;23.85;;
54259;SDS011;40172;53.022;7.012;2023-02-12T02:08:39;80.40;;;24.80;;
54259;SDS011;40172;53.022;7.012;2023-02-12T02:11:06;64.85;;;23.70;;
54259;SDS011;40172;53.022;7.012;2023-02-12T02:13:52;64.38;;;24.73;;
54259;SDS011;40172;53.022;7.012;2023-02-12T02:16:37;60.22;;;24.77;;
54259;SDS011;40172;53.022;7.012;2023-02-12T02:22:13;61.15;;;23.77;;
54259;SDS011;40172;53.022;7.012;2023-02-12T02:30:30;61.33;;;25.27;;
54259;SDS011;40172;53.022;7.012;2023-02-12T02:33:10;68.72;;;24.25;;
54259;SDS011;40172;53.022;7.012;2023-02-12T02:40:47;72.25;;;26.70;;
54259;SDS011;40172;53.022;7.012;2023-02-12T02:43:19;74.43;;;25.58;;
54259;SDS011;40172;53.022;7.012;2023-02-12T02:50:56;73.90;;;25.35;;
54259;SDS011;40172;53.022;7.012;2023-02-12T02:53:46;74.00;;;25.38;;
54259;SDS011;40172;53.022;7.012;2023-02-12T02:56:16;68.65;;;25.50;;
54259;SDS011;40172;53.022;7.012;2023-02-12T02:58:55;63.47;;;24.65;;
54259;SDS011;40172;53.022;7.012;2023-02-12T03:01:32;66.88;;;25.58;;
54259;SDS011;40172;53.022;7.012;2023-02-12T03:04:05;57.90;;;24.27;;
54259;SDS011;40172;53.022;7.012;2023-02-12T03:06:42;57.58;;;23.63;;
54259;SDS011;40172;53.022;7.012;2023-02-12T03:09:20;63.80;;;23.85;;
54259;SDS011;40172;53.022;7.012;2023-02-12T03:11:49;61.10;;;23.67;;
54259;SDS011;40172;53.022;7.012;2023-02-12T03:14:28;61.50;;;23.95;;
54259;SDS011;40172;53.022;7.012;2023-02-12T03:19:54;63.25;;;25.27;;
54259;SDS011;40172;53.022;7.012;2023-02-12T03:22:25;63.92;;;26.63;;
54259;SDS011;40172;53.022;7.012;2023-02-12T03:25:16;66.65;;;26.02;;
54259;SDS011;40172;53.022;7.012;2023-02-12T03:27:49;65.40;;;25.55;;
54259;SDS011;40172;53.022;7.012;2023-02-12T03:30:35;78.47;;;27.05;;
54259;SDS011;40172;53.022;7.012;2023-02-12T03:33:20;70.78;;;27.27;;
54259;SDS011;40172;53.022;7.012;2023-02-12T03:35:58;71.63;;;26.45;;
54259;SDS011;40172;53.022;7.012;2023-02-12T03:38:47;72.13;;;27.52;;
54259;SDS011;40172;53.022;7.012;2023-02-12T03:43:51;66.47;;;28.40;;
54259;SDS011;40172;53.022;7.012;2023-02-12T03:46:21;83.25;;;30.25;;
54259;SDS011;40172;53.022;7.012;2023-02-12T03:48:55;74.72;;;29.85;;
54259;SDS011;40172;53.022;7.012;2023-02-12T03:51:35;80.68;;;30.00;;
54259;SDS011;40172;53.022;7.012;2023-02-12T03:54:01;76.60;;;29.70;;
54259;SDS011;40172;53.022;7.012;2023-02-12T03:56:32;91.40;;;31.55;;
54259;SDS011;40172;53.022;7.012;2023-02-12T03:59:03;83.40;;;32.60;;
54259;SDS011;40172;53.022;7.012;2023-02-12T04:01:30;79.22;;;30.85;;
54259;SDS011;40172;53.022;7.012;2023-02-12T04:03:57;76.90;;;29.60;;
54259;SDS011;40172;53.022;7.012;2023-02-12T04:06:24;72.15;;;29.15;;
54259;SDS011;40172;53.022;7.012;2023-02-12T04:08:52;81.28;;;30.58;;
54259;SDS011;40172;53.022;7.012;2023-02-12T04:11:43;82.85;;;31.90;;
54259;SDS011;40172;53.022;7.012;2023-02-12T04:19:53;161.85;;;40.60;;
54259;SDS011;40172;53.022;7.012;2023-02-12T04:22:54;168.52;;;40.63;;
54259;SDS011;40172;53.022;7.012;2023-02-12T04:25:59;177.10;;;42.90;;
54259;SDS011;40172;53.022;7.012;2023-02-12T04:28:41;184.32;;;41.85;;
54259;SDS011;40172;53.022;7.012;2023-02-12T04:34:05;142.68;;;40.13;;
54259;SDS011;40172;53.022;7.012;2023-02-12T04:39:15;218.65;;;46.72;;
54259;SDS011;40172;53.022;7.012;2023-02-12T04:41:45;199.05;;;44.28;;
54259;SDS011;40172;53.022;7.012;2023-02-12T04:44:18;217.10;;;45.95;;
54259;SDS011;40172;53.022;7.012;2023-02-12T04:46:50;158.60;;;43.17;;
54259;SDS011;40172;53.022;7.012;2023-02-12T04:49:16;171.15;;;43.95;;
54259;SDS011;40172;53.022;7.012;2023-02-12T04:51:43;145.93;;;42.83;;
54259;SDS011;40172;53.022;7.012;2023-02-12T04:54:10;149.98;;;42.25;;
54259;SDS011;40172;53.022;7.012;2023-02-12T04:56:36;148.15;;;43.00;;
54259;SDS011;40172;53.022;7.012;2023-02-12T04:59:02;143.30;;;44.90;;
54259;SDS011;40172;53.022;7.012;2023-02-12T05:01:28;135.88;;;42.03;;
54259;SDS011;40172;53.022;7.012;2023-02-12T05:03:54;126.95;;;41.40;;
54259;SDS011;40172;53.022;7.012;2023-02-12T05:06:19;136.85;;;42.45;;
54259;SDS011;40172;53.022;7.012;2023-02-12T05:08:45;151.02;;;41.83;;
54259;SDS011;40172;53.022;7.012;2023-02-12T05:11:10;129.55;;;40.55;;
54259;SDS011;40172;53.022;7.012;2023-02-12T05:13:36;137.35;;;41.42;;
54259;SDS011;40172;53.022;7.012;2023-02-12T05:16:03;38.38;;;11.00;;
54259;SDS011;40172;53.022;7.012;2023-02-12T05:18:30;136.25;;;41.33;;
54259;SDS011;40172;53.022;7.012;2023-02-12T05:20:56;155.43;;;42.55;;
54259;SDS011;40172;53.022;7.012;2023-02-12T05:23:25;161.60;;;44.67;;
54259;SDS011;40172;53.022;7.012;2023-02-12T05:25:51;161.95;;;42.85;;
54259;SDS011;40172;53.022;7.012;2023-02-12T05:28:17;161.50;;;44.42;;
54259;SDS011;40172;53.022;7.012;2023-02-12T05:30:42;166.98;;;43.72;;
54259;SDS011;40172;53.022;7.012;2023-02-12T05:33:08;154.02;;;43.70;;
54259;SDS011;40172;53.022;7.012;2023-02-12T05:35:34;143.55;;;41.13;;
54259;SDS011;40172;53.022;7.012;2023-02-12T05:38:00;120.78;;;40.90;;
54259;SDS011;40172;53.022;7.012;2023-02-12T05:40:25;119.07;;;40.00;;
54259;SDS011;40172;53.022;7.012;2023-02-12T05:42:51;43.45;;;11.48;;
54259;SDS011;40172;53.022;7.012;2023-02-12T05:45:16;31.48;;;9.48;;
54259;SDS011;40172;53.022;7.012;2023-02-12T05:47:42;29.73;;;9.38;;
54259;SDS011;40172;53.022;7.012;2023-02-12T05:50:08;173.13;;;44.88;;
54259;SDS011;40172;53.022;7.012;2023-02-12T05:52:33;173.82;;;46.25;;
54259;SDS011;40172;53.022;7.012;2023-02-12T05:54:59;178.98;;;46.15;;
54259;SDS011;40172;53.022;7.012;2023-02-12T05:57:24;182.38;;;47.13;;
54259;SDS011;40172;53.022;7.012;2023-02-12T05:59:50;161.70;;;44.75;;
54259;SDS011;40172;53.022;7.012;2023-02-12T06:02:16;173.48;;;44.63;;
54259;SDS011;40172;53.022;7.012;2023-02-12T06:04:41;159.35;;;43.92;;
54259;SDS011;40172;53.022;7.012;2023-02-12T06:07:07;173.88;;;45.65;;
54259;SDS011;40172;53.022;7.012;2023-02-12T06:09:33;160.18;;;45.25;;
54259;SDS011;40172;53.022;7.012;2023-02-12T06:11:59;174.98;;;45.25;;
54259;SDS011;40172;53.022;7.012;2023-02-12T06:14:25;156.15;;;45.60;;
54259;SDS011;40172;53.022;7.012;2023-02-12T06:16:50;142.05;;;42.88;;
54259;SDS011;40172;53.022;7.012;2023-02-12T06:19:16;143.10;;;42.08;;
54259;SDS011;40172;53.022;7.012;2023-02-12T06:21:44;141.05;;;42.45;;
54259;SDS011;40172;53.022;7.012;2023-02-12T06:24:13;141.30;;;42.63;;
54259;SDS011;40172;53.022;7.012;2023-02-12T06:26:40;143.60;;;44.00;;
54259;SDS011;40172;53.022;7.012;2023-02-12T06:29:05;136.82;;;43.72;;
54259;SDS011;40172;53.022;7.012;2023-02-12T06:31:32;149.93;;;42.47;;
54259;SDS011;40172;53.022;7.012;2023-02-12T06:34:00;136.73;;;42.75;;
54259;SDS011;40172;53.022;7.012;2023-02-12T06:36:27;158.70;;;42.67;;
54259;SDS011;40172;53.022;7.012;2023-02-12T06:38:53;137.82;;;41.42;;
54259;SDS011;40172;53.022;7.012;2023-02-12T06:41:19;47.08;;;10.60;;
54259;SDS011;40172;53.022;7.012;2023-02-12T06:43:45;25.42;;;9.30;;
54259;SDS011;40172;53.022;7.012;2023-02-12T06:46:11;127.78;;;39.90;;
54259;SDS011;40172;53.022;7.012;2023-02-12T06:48:37;110.25;;;36.08;;
54259;SDS011;40172;53.022;7.012;2023-02-12T06:51:04;119.43;;;38.38;;
54259;SDS011;40172;53.022;7.012;2023-02-12T06:53:31;115.97;;;37.60;;
54259;SDS011;40172;53.022;7.012;2023-02-12T06:55:59;140.38;;;40.88;;
54259;SDS011;40172;53.022;7.012;2023-02-12T06:58:25;127.25;;;38.13;;
54259;SDS011;40172;53.022;7.012;2023-02-12T07:00:51;134.73;;;39.25;;
54259;SDS011;40172;53.022;7.012;2023-02-12T07:03:17;138.20;;;38.83;;
54259;SDS011;40172;53.022;7.012;2023-02-12T07:05:42;135.70;;;39.55;;
54259;SDS011;40172;53.022;7.012;2023-02-12T07:08:08;152.95;;;41.55;;
54259;SDS011;40172;53.022;7.012;2023-02-12T07:10:33;172.85;;;42.05;;
54259;SDS011;40172;53.022;7.012;2023-02-12T07:12:59;158.90;;;41.67;;
54259;SDS011;40172;53.022;7.012;2023-02-12T07:15:25;152.60;;;42.30;;
54259;SDS011;40172;53.022;7.012;2023-02-12T07:17:50;143.52;;;40.40;;
54259;SDS011;40172;53.022;7.012;2023-02-12T07:20:16;136.00;;;38.70;;
54259;SDS011;40172;53.022;7.012;2023-02-12T07:22:41;134.70;;;39.58;;
54259;SDS011;40172;53.022;7.012;2023-02-12T07:25:07;116.40;;;37.47;;
54259;SDS011;40172;53.022;7.012;2023-02-12T07:27:35;26.27;;;8.68;;
54259;SDS011;40172;53.022;7.012;2023-02-12T07:30:02;35.65;;;10.80;;
54259;SDS011;40172;53.022;7.012;2023-02-12T07:32:30;140.95;;;40.85;;
54259;SDS011;40172;53.022;7.012;2023-02-12T07:34:59;140.38;;;40.13;;
54259;SDS011;40172;53.022;7.012;2023-02-12T07:37:24;140.77;;;40.85;;
54259;SDS011;40172;53.022;7.012;2023-02-12T07:39:50;159.45;;;40.80;;
54259;SDS011;40172;53.022;7.012;2023-02-12T07:42:16;151.02;;;41.42;;
54259;SDS011;40172;53.022;7.012;2023-02-12T07:44:43;173.57;;;42.58;;
54259;SDS011;40172;53.022;7.012;2023-02-12T07:47:09;165.18;;;41.88;;
54259;SDS011;40172;53.022;7.012;2023-02-12T07:49:34;165.75;;;41.70;;
54259;SDS011;40172;53.022;7.012;2023-02-12T07:52:00;146.77;;;39.55;;
54259;SDS011;40172;53.022;7.012;2023-02-12T07:54:26;152.88;;;41.63;;
54259;SDS011;40172;53.022;7.012;2023-02-12T07:56:51;157.77;;;40.85;;
54259;SDS011;40172;53.022;7.012;2023-02-12T07:59:17;157.63;;;40.60;;
54259;SDS011;40172;53.022;7.012;2023-02-12T08:01:50;32.33;;;10.05;;
54259;SDS011;40172;53.022;7.012;2023-02-12T08:04:18;136.38;;;37.88;;
54259;SDS011;40172;53.022;7.012;2023-02-12T08:06:46;134.05;;;35.75;;
54259;SDS011;40172;53.022;7.012;2023-02-12T08:09:16;110.05;;;33.78;;
54259;SDS011;40172;53.022;7.012;2023-02-12T08:11:43;129.32;;;34.90;;
54259;SDS011;40172;53.022;7.012;2023-02-12T08:14:10;119.38;;;34.63;;
54259;SDS011;40172;53.022;7.012;2023-02-12T08:16:37;136.77;;;36.80;;
54259;SDS011;40172;53.022;7.012;2023-02-12T08:19:04;123.13;;;36.42;;
54259;SDS011;40172;53.022;7.012;2023-02-12T08:21:30;22.83;;;7.95;;
54259;SDS011;40172;53.022;7.012;2023-02-12T08:23:57;27.10;;;9.07;;
54259;SDS011;40172;53.022;7.012;2023-02-12T08:26:30;144.73;;;36.05;;
54259;SDS011;40172;53.022;7.012;2023-02-12T08:28:58;99.00;;;33.65;;
54259;SDS011;40172;53.022;7.012;2023-02-12T08:31:27;102.40;;;32.53;;
54259;SDS011;40172;53.022;7.012;2023-02-12T08:33:54;108.00;;;34.35;;
54259;SDS011;40172;53.022;7.012;2023-02-12T08:36:24;109.18;;;34.95;;
54259;SDS011;40172;53.022;7.012;2023-02-12T08:38:51;114.10;;;34.58;;
54259;SDS011;40172;53.022;7.012;2023-02-12T08:41:18;104.47;;;34.45;;
54259;SDS011;40172;53.022;7.012;2023-02-12T08:43:45;107.00;;;33.83;;
54259;SDS011;40172;53.022;7.012;2023-02-12T08:46:16;94.28;;;33.35;;
54259;SDS011;40172;53.022;7.012;2023-02-12T08:48:44;90.97;;;31.92;;
54259;SDS011;40172;53.022;7.012;2023-02-12T08:51:10;97.60;;;32.47;;
54259;SDS011;40172;53.022;7.012;2023-02-12T08:53:38;99.28;;;32.08;;
54259;SDS011;40172;53.022;7.012;2023-02-12T08:56:06;91.88;;;32.20;;
54259;SDS011;40172;53.022;7.012;2023-02-12T08:58:33;89.40;;;32.58;;
54259;SDS011;40172;53.022;7.012;2023-02-12T09:00:59;80.93;;;30.35;;
54259;SDS011;40172;53.022;7.012;2023-02-12T09:03:25;87.95;;;30.63;;
54259;SDS011;40172;53.022;7.012;2023-02-12T09:05:51;82.57;;;29.67;;
54259;SDS011;40172;53.022;7.012;2023-02-12T09:08:17;78.38;;;29.77;;
54259;SDS011;40172;53.022;7.012;2023-02-12T09:10:42;84.38;;;31.20;;
54259;SDS011;40172;53.022;7.012;2023-02-12T09:13:09;106.03;;;35.35;;
54259;SDS011;40172;53.022;7.012;2023-02-12T09:15:40;90.32;;;32.55;;
54259;SDS011;40172;53.022;7.012;2023-02-12T09:18:07;78.93;;;30.63;;
54259;SDS011;40172;53.022;7.012;2023-02-12T09:20:32;79.63;;;30.42;;
54259;SDS011;40172;53.022;7.012;2023-02-12T09:23:02;62.20;;;27.35;;
54259;SDS011;40172;53.022;7.012;2023-02-12T09:25:28;69.65;;;29.60;;
54259;SDS011;40172;53.022;7.012;2023-02-12T09:27:54;70.22;;;30.42;;
54259;SDS011;40172;53.022;7.012;2023-02-12T09:30:20;56.55;;;28.00;;
54259;SDS011;40172;53.022;7.012;2023-02-12T09:32:46;57.70;;;26.70;;
54259;SDS011;40172;53.022;7.012;2023-02-12T09:35:12;45.97;;;24.00;;
54259;SDS011;40172;53.022;7.012;2023-02-12T09:37:38;42.28;;;22.98;;
54259;SDS011;40172;53.022;7.012;2023-02-12T09:40:09;45.45;;;23.23;;
54259;SDS011;40172;53.022;7.012;2023-02-12T09:45:27;50.05;;;27.05;;
54259;SDS011;40172;53.022;7.012;2023-02-12T09:50:58;43.70;;;24.27;;
54259;SDS011;40172;53.022;7.012;2023-02-12T09:53:28;43.67;;;23.30;;
54259;SDS011;40172;53.022;7.012;2023-02-12T09:55:55;43.65;;;23.58;;
54259;SDS011;40172;53.022;7.012;2023-02-12T10:01:12;48.10;;;23.90;;
54259;SDS011;40172;53.022;7.012;2023-02-12T10:03:39;45.88;;;24.30;;
54259;SDS011;40172;53.022;7.012;2023-02-12T10:06:11;40.67;;;22.17;;
54259;SDS011;40172;53.022;7.012;2023-02-12T10:11:31;34.75;;;21.15;;
54259;SDS011;40172;53.022;7.012;2023-02-12T10:19:36;34.13;;;20.77;;
54259;SDS011;40172;53.022;7.012;2023-02-12T10:25:25;35.78;;;21.45;;
54259;SDS011;40172;53.022;7.012;2023-02-12T10:27:59;43.05;;;22.45;;
54259;SDS011;40172;53.022;7.012;2023-02-12T10:30:43;35.92;;;19.67;;
54259;SDS011;40172;53.022;7.012;2023-02-12T10:33:24;37.78;;;20.83;;
54259;SDS011;40172;53.022;7.012;2023-02-12T10:35:58;35.80;;;20.70;;
54259;SDS011;40172;53.022;7.012;2023-02-12T10:38:30;36.60;;;19.87;;
54259;SDS011;40172;53.022;7.012;2023-02-12T10:41:00;34.20;;;19.77;;
54259;SDS011;40172;53.022;7.012;2023-02-12T10:43:26;35.15;;;19.70;;
54259;SDS011;40172;53.022;7.012;2023-02-12T10:45:52;37.65;;;20.00;;
54259;SDS011;40172;53.022;7.012;2023-02-12T10:48:22;33.25;;;19.83;;
54259;SDS011;40172;53.022;7.012;2023-02-12T10:53:29;33.13;;;19.27;;
54259;SDS011;40172;53.022;7.012;2023-02-12T11:01:15;33.42;;;18.90;;
54259;SDS011;40172;53.022;7.012;2023-02-12T11:03:44;33.92;;;19.77;;
54259;SDS011;40172;53.022;7.012;2023-02-12T11:06:11;29.98;;;18.38;;
54259;SDS011;40172;53.022;7.012;2023-02-12T11:08:42;34.25;;;19.48;;
54259;SDS011;40172;53.022;7.012;2023-02-12T11:11:09;33.83;;;19.73;;
54259;SDS011;40172;53.022;7.012;2023-02-12T11:13:43;37.33;;;21.10;;
54259;SDS011;40172;53.022;7.012;2023-02-12T11:16:12;37.97;;;21.83;;
54259;SDS011;40172;53.022;7.012;2023-02-12T11:18:41;37.97;;;21.02;;
54259;SDS011;40172;53.022;7.012;2023-02-12T11:21:07;33.40;;;19.50;;
54259;SDS011;40172;53.022;7.012;2023-02-12T11:23:43;37.17;;;19.63;;
54259;SDS011;40172;53.022;7.012;2023-02-12T11:28:51;36.25;;;18.98;;
54259;SDS011;40172;53.022;7.012;2023-02-12T11:31:21;33.10;;;19.77;;
54259;SDS011;40172;53.022;7.012;2023-02-12T11:36:28;30.85;;;18.05;;
54259;SDS011;40172;53.022;7.012;2023-02-12T11:38:55;29.30;;;18.00;;
54259;SDS011;40172;53.022;7.012;2023-02-12T11:43:50;32.13;;;17.80;;
54259;SDS011;40172;53.022;7.012;2023-02-12T11:46:20;28.95;;;17.67;;
54259;SDS011;40172;53.022;7.012;2023-02-12T11:48:49;28.00;;;17.27;;
54259;SDS011;40172;53.022;7.012;2023-02-12T11:51:34;27.70;;;16.13;;
54259;SDS011;40172;53.022;7.012;2023-02-12T11:54:02;28.80;;;16.35;;
54259;SDS011;40172;53.022;7.012;2023-02-12T11:56:43;25.58;;;16.63;;
54259;SDS011;40172;53.022;7.012;2023-02-12T11:59:20;23.63;;;15.27;;
54259;SDS011;40172;53.022;7.012;2023-02-12T12:01:55;25.90;;;17.00;;
54259;SDS011;40172;53.022;7.012;2023-02-12T12:04:27;26.88;;;16.83;;
54259;SDS011;40172;53.022;7.012;2023-02-12T12:06:59;24.30;;;15.38;;
54259;SDS011;40172;53.022;7.012;2023-02-12T12:12:20;25.08;;;14.63;;
54259;SDS011;40172;53.022;7.012;2023-02-12T12:14:51;23.33;;;14.75;;
54259;SDS011;40172;53.022;7.012;2023-02-12T12:17:44;21.75;;;13.77;;
54259;SDS011;40172;53.022;7.012;2023-02-12T12:20:39;21.15;;;12.68;;
54259;SDS011;40172;53.022;7.012;2023-02-12T12:23:17;24.08;;;13.55;;
54259;SDS011;40172;53.022;7.012;2023-02-12T12:25:53;21.42;;;14.57;;
54259;SDS011;40172;53.022;7.012;2023-02-12T12:28:39;18.95;;;12.43;;
54259;SDS011;40172;53.022;7.012;2023-02-12T12:39:24;20.08;;;11.90;;
54259;SDS011;40172;53.022;7.012;2023-02-12T12:42:51;15.38;;;10.45;;
54259;SDS011;40172;53.022;7.012;2023-02-12T12:50:59;7.50;;;4.32;;
54259;SDS011;40172;53.022;7.012;2023-02-12T12:53:43;6.10;;;3.60;;
54259;SDS011;40172;53.022;7.012;2023-02-12T13:07:57;6.82;;;3.30;;
54259;SDS011;40172;53.022;7.012;2023-02-12T13:13:41;8.00;;;4.45;;
54259;SDS011;40172;53.022;7.012;2023-02-12T13:24:42;5.20;;;2.88;;
54259;SDS011;40172;53.022;7.012;2023-02-12T13:27:15;4.55;;;3.03;;
54259;SDS011;40172;53.022;7.012;2023-02-12T13:29:50;7.82;;;4.03;;
54259;SDS011;40172;53.022;7.012;2023-02-12T13:32:24;7.22;;;4.43;;
54259;SDS011;40172;53.022;7.012;2023-02-12T13:34:53;9.32;;;4.93;;
54259;SDS011;40172;53.022;7.012;2023-02-12T13:37:37;7.53;;;4.45;;
54259;SDS011;40172;53.022;7.012;2023-02-12T13:40:13;7.95;;;4.80;;
54259;SDS011;40172;53.022;7.012;2023-02-12T13:45:20;7.00;;;4.47;;
54259;SDS011;40172;53.022;7.012;2023-02-12T13:51:06;8.35;;;4.70;;
54259;SDS011;40172;53.022;7.012;2023-02-12T13:56:47;4.93;;;2.70;;
54259;SDS011;40172;53.022;7.012;2023-02-12T14:01:56;3.75;;;1.88;;
54259;SDS011;40172;53.022;7.012;2023-02-12T14:04:30;5.57;;;2.05;;
54259;SDS011;40172;53.022;7.012;2023-02-12T14:06:59;2.75;;;1.67;;
54259;SDS011;40172;53.022;7.012;2023-02-12T14:09:28;4.80;;;1.90;;
54259;SDS011;40172;53.022;7.012;2023-02-12T14:12:02;3.42;;;2.10;;
54259;SDS011;40172;53.022;7.012;2023-02-12T14:14:38;5.22;;;2.60;;
54259;SDS011;40172;53.022;7.012;2023-02-12T14:40:39;5.80;;;3.38;;
54259;SDS011;40172;53.022;7.012;2023-02-12T14:54:26;4.82;;;2.80;;
54259;SDS011;40172;53.022;7.012;2023-02-12T15:00:17;5.68;;;3.28;;
54259;SDS011;40172;53.022;7.012;2023-02-12T15:03:06;7.00;;;3.85;;
54259;SDS011;40172;53.022;7.012;2023-02-12T15:08:55;9.48;;;5.38;;
54259;SDS011;40172;53.022;7.012;2023-02-12T15:14:02;11.00;;;6.28;;
54259;SDS011;40172;53.022;7.012;2023-02-12T15:16:39;11.43;;;6.65;;
54259;SDS011;40172;53.022;7.012;2023-02-12T15:24:51;6.78;;;4.18;;
54259;SDS011;40172;53.022;7.012;2023-02-12T15:27:17;7.38;;;4.55;;
54259;SDS011;40172;53.022;7.012;2023-02-12T15:29:45;6.80;;;4.60;;
54259;SDS011;40172;53.022;7.012;2023-02-12T15:32:24;6.78;;;4.05;;
54259;SDS011;40172;53.022;7.012;2023-02-12T15:34:52;7.40;;;4.70;;
54259;SDS011;40172;53.022;7.012;2023-02-12T15:37:24;7.03;;;3.85;;
54259;SDS011;40172;53.022;7.012;2023-02-12T15:39:55;6.55;;;4.20;;
54259;SDS011;40172;53.022;7.012;2023-02-12T15:42:31;8.85;;;3.47;;
54259;SDS011;40172;53.022;7.012;2023-02-12T15:45:15;8.45;;;4.15;;
54259;SDS011;40172;53.022;7.012;2023-02-12T15:47:43;6.63;;;3.25;;
54259;SDS011;40172;53.022;7.012;2023-02-12T15:50:18;6.28;;;3.30;;
54259;SDS011;40172;53.022;7.012;2023-02-12T15:52:46;7.43;;;3.63;;
54259;SDS011;40172;53.022;7.012;2023-02-12T15:55:15;6.30;;;3.42;;
54259;SDS011;40172;53.022;7.012;2023-02-12T15:57:43;7.35;;;3.05;;
54259;SDS011;40172;53.022;7.012;2023-02-12T16:00:27;4.80;;;2.80;;
54259;SDS011;40172;53.022;7.012;2023-02-12T16:02:57;6.45;;;2.40;;
54259;SDS011;40172;53.022;7.012;2023-02-12T16:05:22;6.03;;;2.55;;
54259;SDS011;40172;53.022;7.012;2023-02-12T16:07:49;5.18;;;2.40;;
54259;SDS011;40172;53.022;7.012;2023-02-12T16:10:17;3.95;;;2.30;;
54259;SDS011;40172;53.022;7.012;2023-02-12T16:12:44;4.70;;;2.80;;
54259;SDS011;40172;53.022;7.012;2023-02-12T16:15:26;6.47;;;2.95;;
54259;SDS011;40172;53.022;7.012;2023-02-12T16:17:54;6.22;;;3.47;;
54259;SDS011;40172;53.022;7.012;2023-02-12T16:20:23;6.60;;;3.25;;
54259;SDS011;40172;53.022;7.012;2023-02-12T16:22:53;4.75;;;3.22;;
54259;SDS011;40172;53.022;7.012;2023-02-12T16:25:21;5.28;;;3.35;;
54259;SDS011;40172;53.022;7.012;2023-02-12T16:28:00;6.78;;;3.70;;
54259;SDS011;40172;53.022;7.012;2023-02-12T16:32:51;5.53;;;3.90;;
54259;SDS011;40172;53.022;7.012;2023-02-12T16:37:44;5.47;;;3.42;;
54259;SDS011;40172;53.022;7.012;2023-02-12T16:47:50;12.55;;;4.00;;
54259;SDS011;40172;53.022;7.012;2023-02-12T16:50:21;6.70;;;4.00;;
54259;SDS011;40172;53.022;7.012;2023-02-12T16:52:50;5.43;;;3.13;;
54259;SDS011;40172;53.022;7.012;2023-02-12T16:55:46;4.57;;;2.90;;
54259;SDS011;40172;53.022;7.012;2023-02-12T16:58:12;4.93;;;3.25;;
54259;SDS011;40172;53.022;7.012;2023-02-12T17:00:38;5.93;;;2.70;;
54259;SDS011;40172;53.022;7.012;2023-02-12T17:03:03;4.97;;;2.80;;
54259;SDS011;40172;53.022;7.012;2023-02-12T17:05:29;4.68;;;2.42;;
54259;SDS011;40172;53.022;7.012;2023-02-12T17:07:55;4.30;;;2.80;;
54259;SDS011;40172;53.022;7.012;2023-02-12T17:10:20;5.97;;;2.78;;
54259;SDS011;40172;53.022;7.012;2023-02-12T17:12:50;3.47;;;2.40;;
54259;SDS011;40172;53.022;7.012;2023-02-12T17:15:27;4.35;;;2.38;;
54259;SDS011;40172;53.022;7.012;2023-02-12T17:17:59;3.38;;;2.63;;
54259;SDS011;40172;53.022;7.012;2023-02-12T17:20:24;3.38;;;2.50;;
54259;SDS011;40172;53.022;7.012;2023-02-12T17:22:51;3.28;;;2.53;;
54259;SDS011;40172;53.022;7.012;2023-02-12T17:25:20;3.22;;;2.10;;
54259;SDS011;40172;53.022;7.012;2023-02-12T17:27:46;3.85;;;2.20;;
54259;SDS011;40172;53.022;7.012;2023-02-12T17:30:15;3.15;;;1.95;;
54259;SDS011;40172;53.022;7.012;2023-02-12T17:32:42;4.40;;;2.20;;
54259;SDS011;40172;53.022;7.012;2023-02-12T17:35:07;4.35;;;2.40;;
54259;SDS011;40172;53.022;7.012;2023-02-12T17:37:33;4.35;;;2.20;;
54259;SDS011;40172;53.022;7.012;2023-02-12T17:39:59;5.43;;;2.90;;
54259;SDS011;40172;53.022;7.012;2023-02-12T17:42:25;5.15;;;3.10;;
54259;SDS011;40172;53.022;7.012;2023-02-12T17:44:51;5.00;;;3.42;;